Main page
METAR-TAF:

METAR-TAF

Airports :

Altenstadt Air Base

Altenstadt, Germany

latitude: 47-50N, longitude: 010-52E, elevation: 739 m

Current weather observation

The report was made 43 minutes ago, at 07:20 UTC
Wind 3 kt from the West/Southwest
Temperature -10°C
Humidity 85%
Pressure 1011 hPa

METAR: ETHA 200720Z AUTO 25003KT //// // ////// M10/M12 Q1011 ///

Time: 09:03 (08:03 UTC)


TAF: missing

Weather observations and forecasts of more than 4000 airports (METAR and TAF reports).

The available stations are represented by yellow and red dots on the map.

Hover mouse over dot to see the name of the station.

Then click to see weather observations and forecasts.

To change the map : click on the green buttons with a black cross to zoom in, on the green button with a dash to zoom out, or on the green arrows for adjacent maps.


METAR-TAF: